岡山グライダークラブ活動状況掲示板あなたは無料カウンター人目の訪問者です

岡山グライダークラブ
岡山市浦安南町639-1 岡南飛行場
 使用機:シャイベ式 SF25C型 ファルケ   JA2330
      ヴァレンティン式17E型 タイフーン  JA2342
 練習日:毎日曜日  クラブルーム:電話 086-265-1810
この掲示板は岡山グライダークラブの活動状況をお知らせする掲示板です。
!!!この掲示板は投稿規制をしています。!!!
クラブ関連各種情報は 岡山グライダークラブクラブルーム      を       .
  ブリーフイング情報は  岡山グライダークラブブリーフィングルーム  をご覧下さい。 .
※写真はクリックすると拡大して見ることが出来ます。
岡南飛行場へのアクセス等は 岡南飛行場管理事務所 をご覧ください。
クラブの ホームページ ができました。

 
10月27日
by OGC at 2019/10/27(日) 20:23:45 No.20191027201439  削除コメント
1024 x 768 x 71,690バイト
No.1

10月27日
本日の参加者
  会員      13名
  その他      2名


@本日の様子




METAR
RJBK 270000Z VRB02KT 15KM FEW150AC SCT/// 17/15 Q1015 A2998
RJOB 270000Z 32004KT 260V360 8000 FEW005 BKN150 16/12 Q1015
RJOT 270000Z 22005KT 9999 FEW020 SCT045 BKN/// 17/15 Q1015
RJOA 270000Z 30005KT 9999 PRFG FEW000 BKN030 15/11 Q1016
TAF
RJOB 262305Z 2700/2806 29005KT 9999 FEW030
        BECMG 2708/2710 35005KT
RJOT 262306Z 2700/2806 21005KT 9999 FEW020 SCT040
        BECMG 2702/2704 27010KT
        BECMG 2710/2712 21004KT
        BECMG 2800/2803 06005KT
RJOA 262311Z 2700/2806 32006KT 9999 FEW020 SCT035
        BECMG 2718/2721 06005KT

本日は、積雲が沢山でき、みんな、サーマルを探して飛び回っていました。
いつもより訓練生が少なかったこともあり、時間的に余裕があった一日でした。

解散    17:10

1番機  10:50離陸 撤収機  17:05着陸 

SF25C JA2330 ファルケ     09Flt.3h40min  
17E   JA2342 タイフーン    05Flt.2h45min  
合計                    14Flt.6h25min

    << 戻る || ホームページ || 最新の掲示板へ